createdAt,value
2022-12-23T00:00:16.743Z,996.25
2022-12-23T00:01:16.761Z,996.25
2022-12-23T00:02:16.854Z,996.26
2022-12-23T00:03:16.824Z,996.26
2022-12-23T00:04:16.847Z,996.27
2022-12-23T00:05:16.898Z,996.23
2022-12-23T00:06:17.623Z,996.24
2022-12-23T00:07:16.653Z,996.21
2022-12-23T00:08:16.683Z,996.17
2022-12-23T00:09:16.662Z,996.14
2022-12-23T00:10:16.708Z,996.15
2022-12-23T00:11:16.662Z,996.15
2022-12-23T00:12:16.636Z,996.13
2022-12-23T00:13:16.633Z,996.05
2022-12-23T00:14:21.540Z,996.09
2022-12-23T00:15:17.555Z,996.12
2022-12-23T00:16:16.736Z,996.08
2022-12-23T00:17:23.780Z,996.11
2022-12-23T00:18:17.536Z,996.12
2022-12-23T00:19:16.506Z,996.06
2022-12-23T00:20:16.506Z,996.03
2022-12-23T00:21:16.491Z,996.00
2022-12-23T00:22:16.474Z,996.00
2022-12-23T00:23:16.477Z,995.97
2022-12-23T00:24:16.511Z,995.98
2022-12-23T00:25:16.403Z,995.98
2022-12-23T00:26:16.407Z,995.97
2022-12-23T00:27:16.405Z,995.97
2022-12-23T00:28:16.395Z,995.94
2022-12-23T00:29:16.372Z,995.96
2022-12-23T00:30:16.361Z,996.01
2022-12-23T00:31:16.398Z,995.95
2022-12-23T00:32:16.432Z,995.92
2022-12-23T00:33:16.327Z,995.87
2022-12-23T00:34:16.359Z,995.91
2022-12-23T00:35:17.102Z,995.95
2022-12-23T00:36:16.423Z,996.00
2022-12-23T00:37:16.347Z,996.04
2022-12-23T00:38:16.281Z,996.03
2022-12-23T00:39:16.303Z,996.00
2022-12-23T00:40:16.248Z,995.96
2022-12-23T00:41:16.279Z,995.92
2022-12-23T00:42:16.355Z,995.88
2022-12-23T00:43:16.205Z,995.85
2022-12-23T00:44:16.221Z,995.91
2022-12-23T00:45:16.309Z,996.01
2022-12-23T00:46:16.212Z,995.99
2022-12-23T00:47:16.121Z,995.97
2022-12-23T00:48:16.122Z,995.99
2022-12-23T00:49:16.305Z,995.97
2022-12-23T00:50:16.152Z,995.99
2022-12-23T00:51:16.108Z,995.96
2022-12-23T00:52:16.061Z,995.91
2022-12-23T00:53:16.075Z,995.92
2022-12-23T00:54:16.050Z,995.86
2022-12-23T00:55:16.029Z,995.89
2022-12-23T00:56:16.009Z,995.92
2022-12-23T00:57:16.016Z,995.95
2022-12-23T00:58:16.018Z,995.90
2022-12-23T00:59:15.991Z,995.92
2022-12-23T01:00:16.235Z,995.95
2022-12-23T01:01:16.261Z,995.87
2022-12-23T01:02:16.058Z,995.91
2022-12-23T01:03:16.125Z,995.90
2022-12-23T01:04:15.929Z,995.89
2022-12-23T01:05:15.910Z,995.90
2022-12-23T01:06:15.981Z,995.88
2022-12-23T01:07:15.874Z,995.85
2022-12-23T01:08:16.002Z,995.78
2022-12-23T01:09:15.889Z,995.79
2022-12-23T01:10:15.875Z,995.79
2022-12-23T01:11:15.833Z,995.78
2022-12-23T01:12:15.832Z,995.79
2022-12-23T01:13:15.815Z,995.81
2022-12-23T01:14:15.813Z,995.80
2022-12-23T01:15:15.813Z,995.80
2022-12-23T01:16:17.949Z,995.83
2022-12-23T01:17:15.894Z,995.80
2022-12-23T01:18:15.762Z,995.79
2022-12-23T01:19:15.760Z,995.77
2022-12-23T01:20:16.883Z,995.76
2022-12-23T01:21:15.864Z,995.76
2022-12-23T01:22:15.681Z,995.74
2022-12-23T01:23:15.808Z,995.77
2022-12-23T01:24:15.801Z,995.74
2022-12-23T01:25:15.627Z,995.78
2022-12-23T01:26:16.832Z,995.77
2022-12-23T01:27:15.654Z,995.74
2022-12-23T01:28:15.628Z,995.73
2022-12-23T01:29:15.600Z,995.69
2022-12-23T01:30:15.575Z,995.71
2022-12-23T01:31:15.635Z,995.67
2022-12-23T01:32:15.628Z,995.65
2022-12-23T01:33:15.549Z,995.69
2022-12-23T01:34:15.516Z,995.69
2022-12-23T01:35:16.199Z,995.68
2022-12-23T01:36:15.576Z,995.71
2022-12-23T01:37:15.517Z,995.70
2022-12-23T01:38:15.975Z,995.75
2022-12-23T01:39:15.499Z,995.74
2022-12-23T01:40:15.453Z,995.77
2022-12-23T01:41:15.454Z,995.75
2022-12-23T01:42:15.515Z,995.74
2022-12-23T01:43:15.435Z,995.78
2022-12-23T01:44:15.398Z,995.74
2022-12-23T01:45:15.395Z,995.76
2022-12-23T01:46:16.727Z,995.76
2022-12-23T01:47:15.432Z,995.81
2022-12-23T01:48:15.342Z,995.75
2022-12-23T01:49:15.334Z,995.75
2022-12-23T01:50:15.422Z,995.75
2022-12-23T01:51:15.302Z,995.76
2022-12-23T01:52:15.316Z,995.72
2022-12-23T01:53:15.318Z,995.74
2022-12-23T01:54:15.274Z,995.74
2022-12-23T01:55:15.277Z,995.74
2022-12-23T01:56:15.244Z,995.72
2022-12-23T01:57:15.249Z,995.74
2022-12-23T01:58:15.643Z,995.76
2022-12-23T01:59:15.179Z,995.79
2022-12-23T02:00:15.175Z,995.75
2022-12-23T02:01:15.182Z,995.74
2022-12-23T02:02:15.450Z,995.78
2022-12-23T02:03:15.269Z,995.77
2022-12-23T02:04:15.973Z,995.76
2022-12-23T02:05:15.111Z,995.75
2022-12-23T02:06:15.232Z,995.77
2022-12-23T02:07:15.115Z,995.75
2022-12-23T02:08:15.115Z,995.80
2022-12-23T02:09:16.092Z,995.76
2022-12-23T02:10:15.047Z,995.75
2022-12-23T02:11:16.023Z,995.79
2022-12-23T02:12:15.151Z,995.78
2022-12-23T02:13:15.029Z,995.77
2022-12-23T02:14:15.005Z,995.77
2022-12-23T02:15:15.024Z,995.77
2022-12-23T02:16:15.090Z,995.82
2022-12-23T02:17:16.061Z,995.77
2022-12-23T02:18:15.926Z,995.75
2022-12-23T02:19:14.935Z,995.78
2022-12-23T02:20:14.958Z,995.74
2022-12-23T02:21:15.001Z,995.76
2022-12-23T02:22:14.915Z,995.74
2022-12-23T02:23:15.115Z,995.75
2022-12-23T02:24:14.895Z,995.73
2022-12-23T02:25:14.883Z,995.78
2022-12-23T02:26:14.825Z,995.78
2022-12-23T02:27:14.886Z,995.82
2022-12-23T02:28:14.845Z,995.84
2022-12-23T02:29:15.906Z,995.84
2022-12-23T02:30:14.813Z,995.87
2022-12-23T02:31:14.894Z,995.84
2022-12-23T02:32:14.817Z,995.87
2022-12-23T02:33:14.785Z,995.92
2022-12-23T02:34:14.753Z,995.87
2022-12-23T02:35:14.771Z,995.91
2022-12-23T02:36:14.699Z,995.90
2022-12-23T02:37:14.794Z,995.90
2022-12-23T02:38:14.717Z,995.93
2022-12-23T02:39:14.697Z,995.90
2022-12-23T02:40:14.658Z,995.90
2022-12-23T02:41:14.699Z,995.95
2022-12-23T02:42:15.664Z,995.91
2022-12-23T02:43:15.572Z,995.94
2022-12-23T02:44:14.796Z,995.97
2022-12-23T02:45:14.620Z,995.97
2022-12-23T02:46:14.663Z,996.02
2022-12-23T02:47:14.591Z,996.00
2022-12-23T02:48:14.566Z,996.01
2022-12-23T02:49:14.566Z,995.98
2022-12-23T02:50:14.549Z,996.03
2022-12-23T02:51:14.507Z,996.00
2022-12-23T02:52:14.535Z,996.03
2022-12-23T02:53:14.537Z,996.01
2022-12-23T02:54:14.518Z,996.01
2022-12-23T02:55:15.483Z,996.04
2022-12-23T02:56:15.372Z,996.02
2022-12-23T02:57:14.436Z,996.06
2022-12-23T02:58:14.408Z,996.05
2022-12-23T02:59:14.467Z,996.04
2022-12-23T03:00:14.398Z,996.00
2022-12-23T03:01:14.491Z,996.00
2022-12-23T03:02:14.591Z,995.96
2022-12-23T03:03:14.492Z,995.98
2022-12-23T03:04:14.362Z,995.96
2022-12-23T03:05:14.375Z,996.02
2022-12-23T03:06:14.307Z,995.97
2022-12-23T03:07:18.483Z,995.98
2022-12-23T03:08:14.310Z,996.01
2022-12-23T03:09:14.342Z,996.01
2022-12-23T03:10:14.260Z,996.04
2022-12-23T03:11:14.257Z,996.05
2022-12-23T03:12:14.260Z,996.09
2022-12-23T03:13:14.249Z,996.07
2022-12-23T03:14:14.222Z,996.05
2022-12-23T03:15:15.064Z,996.05
2022-12-23T03:16:14.321Z,996.01
2022-12-23T03:17:15.385Z,996.05
2022-12-23T03:18:14.183Z,996.04
2022-12-23T03:19:14.142Z,995.99
2022-12-23T03:20:14.193Z,996.02
2022-12-23T03:21:14.128Z,995.99
2022-12-23T03:22:14.145Z,996.01
2022-12-23T03:23:14.157Z,996.05
2022-12-23T03:24:14.123Z,996.09
2022-12-23T03:25:14.170Z,996.08
2022-12-23T03:26:14.115Z,996.13
2022-12-23T03:27:14.046Z,996.06
2022-12-23T03:28:14.066Z,996.13
2022-12-23T03:29:14.029Z,996.09
2022-12-23T03:30:14.076Z,996.10
2022-12-23T03:31:14.060Z,996.12
2022-12-23T03:32:14.015Z,996.09
2022-12-23T03:33:13.993Z,996.11
2022-12-23T03:34:14.947Z,996.08
2022-12-23T03:35:13.955Z,996.12
2022-12-23T03:36:14.139Z,996.12
2022-12-23T03:37:13.943Z,996.10
2022-12-23T03:38:13.920Z,996.13
2022-12-23T03:39:13.884Z,996.14
2022-12-23T03:40:13.858Z,996.15
2022-12-23T03:41:13.923Z,996.16
2022-12-23T03:42:13.886Z,996.17
2022-12-23T03:43:13.824Z,996.12
2022-12-23T03:44:13.875Z,996.18
2022-12-23T03:45:38.757Z,996.14
2022-12-23T03:46:15.585Z,996.11
2022-12-23T03:47:13.822Z,996.14
2022-12-23T03:48:13.795Z,996.08
2022-12-23T03:49:13.917Z,996.11
2022-12-23T03:50:13.728Z,996.10
2022-12-23T03:51:13.726Z,996.16
2022-12-23T03:52:20.764Z,996.16
2022-12-23T03:53:15.190Z,996.14
2022-12-23T03:54:13.767Z,996.19
2022-12-23T03:55:13.761Z,996.20
2022-12-23T03:56:14.716Z,996.23
2022-12-23T03:57:13.676Z,996.20
2022-12-23T03:58:13.649Z,996.22
2022-12-23T03:59:13.668Z,996.21
2022-12-23T04:00:13.737Z,996.21
2022-12-23T04:01:13.746Z,996.21
2022-12-23T04:02:13.780Z,996.21
2022-12-23T04:03:13.957Z,996.20
2022-12-23T04:04:13.668Z,996.22
2022-12-23T04:05:13.586Z,996.23
2022-12-23T04:06:13.597Z,996.21
2022-12-23T04:07:13.535Z,996.23
2022-12-23T04:08:13.573Z,996.24
2022-12-23T04:09:18.184Z,996.28
2022-12-23T04:10:14.488Z,996.27
2022-12-23T04:11:13.542Z,996.30
2022-12-23T04:12:13.458Z,996.36
2022-12-23T04:13:13.520Z,996.40
2022-12-23T04:14:13.467Z,996.32
2022-12-23T04:15:13.921Z,996.36
2022-12-23T04:16:14.169Z,996.34
2022-12-23T04:17:14.235Z,996.41
2022-12-23T04:18:13.451Z,996.45
2022-12-23T04:19:13.421Z,996.44
2022-12-23T04:20:14.477Z,996.43
2022-12-23T04:21:13.441Z,996.48
2022-12-23T04:22:13.417Z,996.48
2022-12-23T04:23:14.164Z,996.51
2022-12-23T04:24:13.351Z,996.48
2022-12-23T04:25:13.372Z,996.53
2022-12-23T04:26:13.391Z,996.51
2022-12-23T04:27:13.344Z,996.52
2022-12-23T04:28:13.272Z,996.49
2022-12-23T04:29:13.263Z,996.53
2022-12-23T04:30:13.244Z,996.49
2022-12-23T04:31:13.235Z,996.52
2022-12-23T04:32:14.331Z,996.53
2022-12-23T04:33:13.200Z,996.56
2022-12-23T04:34:13.217Z,996.54
2022-12-23T04:35:13.458Z,996.56
2022-12-23T04:36:13.179Z,996.54
2022-12-23T04:37:13.180Z,996.53
2022-12-23T04:38:13.165Z,996.53
2022-12-23T04:39:13.104Z,996.56
2022-12-23T04:40:13.120Z,996.58
2022-12-23T04:41:13.081Z,996.61
2022-12-23T04:42:13.098Z,996.59
2022-12-23T04:43:13.541Z,996.59
2022-12-23T04:44:13.118Z,996.59
2022-12-23T04:45:14.511Z,996.58
2022-12-23T04:46:13.114Z,996.48
2022-12-23T04:47:13.130Z,996.45
2022-12-23T04:48:13.005Z,996.52
2022-12-23T04:49:12.990Z,996.53
2022-12-23T04:50:13.009Z,996.54
2022-12-23T04:51:13.052Z,996.57
2022-12-23T04:52:12.950Z,996.58
2022-12-23T04:53:12.954Z,996.65
2022-12-23T04:54:12.928Z,996.63
2022-12-23T04:55:12.984Z,996.64
2022-12-23T04:56:12.909Z,996.70
2022-12-23T04:57:12.910Z,996.67
2022-12-23T04:58:12.940Z,996.62
2022-12-23T04:59:12.898Z,996.55
2022-12-23T05:00:13.678Z,996.53
2022-12-23T05:01:12.913Z,996.54
2022-12-23T05:02:13.016Z,996.51
2022-12-23T05:03:13.132Z,996.50
2022-12-23T05:04:12.965Z,996.49
2022-12-23T05:05:12.779Z,996.53
2022-12-23T05:06:12.787Z,996.57
2022-12-23T05:07:12.739Z,996.56
2022-12-23T05:08:12.958Z,996.55
2022-12-23T05:09:12.734Z,996.56
2022-12-23T05:10:12.701Z,996.56
2022-12-23T05:11:13.653Z,996.63
2022-12-23T05:12:14.023Z,996.62
2022-12-23T05:13:12.815Z,996.64
2022-12-23T05:14:12.656Z,996.71
2022-12-23T05:15:12.798Z,996.69
2022-12-23T05:16:13.716Z,996.74
2022-12-23T05:17:12.802Z,996.71
2022-12-23T05:18:12.602Z,996.76
2022-12-23T05:19:12.593Z,996.79
2022-12-23T05:20:12.595Z,996.78
2022-12-23T05:21:12.635Z,996.83
2022-12-23T05:22:12.617Z,996.85
2022-12-23T05:23:12.572Z,996.88
2022-12-23T05:24:12.523Z,996.89
2022-12-23T05:25:13.337Z,996.92
2022-12-23T05:26:12.617Z,996.97
2022-12-23T05:27:12.559Z,996.94
2022-12-23T05:28:12.664Z,996.91
2022-12-23T05:29:13.474Z,996.94
2022-12-23T05:30:12.460Z,996.98
2022-12-23T05:31:12.462Z,997.00
2022-12-23T05:32:12.522Z,997.00
2022-12-23T05:33:12.640Z,996.99
2022-12-23T05:34:12.992Z,996.99
2022-12-23T05:35:13.400Z,997.06
2022-12-23T05:36:12.486Z,997.03
2022-12-23T05:37:12.363Z,997.05
2022-12-23T05:38:12.388Z,997.08
2022-12-23T05:39:13.366Z,997.05
2022-12-23T05:40:15.011Z,997.06
2022-12-23T05:41:13.492Z,997.05
2022-12-23T05:42:12.344Z,997.10
2022-12-23T05:43:12.326Z,997.14
2022-12-23T05:44:12.281Z,997.11
2022-12-23T05:45:12.268Z,997.17
2022-12-23T05:46:12.368Z,997.21
2022-12-23T05:47:12.229Z,997.17
2022-12-23T05:48:12.241Z,997.19
2022-12-23T05:49:12.228Z,997.23
2022-12-23T05:50:12.260Z,997.19
2022-12-23T05:51:12.187Z,997.18
2022-12-23T05:52:12.168Z,997.17
2022-12-23T05:53:12.197Z,997.18
2022-12-23T05:54:12.129Z,997.21
2022-12-23T05:55:12.149Z,997.24
2022-12-23T05:56:12.114Z,997.26
2022-12-23T05:57:12.085Z,997.31
2022-12-23T05:58:13.241Z,997.32
2022-12-23T05:59:12.308Z,997.31
2022-12-23T06:00:12.089Z,997.35
2022-12-23T06:01:12.068Z,997.33
2022-12-23T06:02:12.513Z,997.33
2022-12-23T06:03:12.269Z,997.37
2022-12-23T06:04:13.228Z,997.36
2022-12-23T06:05:11.989Z,997.37
2022-12-23T06:06:12.986Z,997.36
2022-12-23T06:07:11.991Z,997.37
2022-12-23T06:08:12.081Z,997.39
2022-12-23T06:09:11.977Z,997.41
2022-12-23T06:10:11.970Z,997.46
2022-12-23T06:11:11.959Z,997.51
2022-12-23T06:12:11.899Z,997.52
2022-12-23T06:13:12.130Z,997.52
2022-12-23T06:14:11.875Z,997.50
2022-12-23T06:15:12.633Z,997.49
2022-12-23T06:16:11.905Z,997.50
2022-12-23T06:17:12.952Z,997.53
2022-12-23T06:18:12.501Z,997.51
2022-12-23T06:19:11.824Z,997.53
2022-12-23T06:20:19.633Z,997.56
2022-12-23T06:21:12.801Z,997.55
2022-12-23T06:22:11.773Z,997.57
2022-12-23T06:23:11.796Z,997.60
2022-12-23T06:24:11.822Z,997.63
2022-12-23T06:25:11.997Z,997.72
2022-12-23T06:26:12.204Z,997.68
2022-12-23T06:27:12.501Z,997.67
2022-12-23T06:28:12.111Z,997.61
2022-12-23T06:29:11.703Z,997.59
2022-12-23T06:30:11.684Z,997.58
2022-12-23T06:31:11.663Z,997.59
2022-12-23T06:32:11.681Z,997.62
2022-12-23T06:33:11.692Z,997.65
2022-12-23T06:34:12.858Z,997.62
2022-12-23T06:35:11.625Z,997.63
2022-12-23T06:36:11.623Z,997.64
2022-12-23T06:37:12.565Z,997.66
2022-12-23T06:38:12.427Z,997.67
2022-12-23T06:39:11.624Z,997.63
2022-12-23T06:40:11.558Z,997.67
2022-12-23T06:41:12.526Z,997.66
2022-12-23T06:42:11.517Z,997.67
2022-12-23T06:43:12.497Z,997.73
2022-12-23T06:44:11.503Z,997.73
2022-12-23T06:45:12.301Z,997.75
2022-12-23T06:46:11.709Z,997.78
2022-12-23T06:47:11.799Z,997.78
2022-12-23T06:48:12.529Z,997.79
2022-12-23T06:49:13.670Z,997.80
2022-12-23T06:50:12.340Z,997.76
2022-12-23T06:51:11.539Z,997.80
2022-12-23T06:52:11.436Z,997.84
2022-12-23T06:53:11.416Z,997.88
2022-12-23T06:54:12.464Z,997.92
2022-12-23T06:55:11.370Z,998.02
2022-12-23T06:56:12.331Z,997.95
2022-12-23T06:57:11.841Z,998.01
2022-12-23T06:58:11.462Z,998.01
2022-12-23T06:59:11.275Z,998.03
2022-12-23T07:00:11.289Z,998.05
2022-12-23T07:01:11.350Z,998.00
2022-12-23T07:02:11.540Z,998.04
2022-12-23T07:03:12.231Z,998.06
2022-12-23T07:04:11.269Z,998.08
2022-12-23T07:05:11.197Z,998.10
2022-12-23T07:06:12.162Z,998.11
2022-12-23T07:07:11.301Z,998.12
2022-12-23T07:08:12.156Z,998.18
2022-12-23T07:09:11.462Z,998.16
2022-12-23T07:10:11.952Z,998.18
2022-12-23T07:11:11.323Z,998.22
2022-12-23T07:12:11.220Z,998.20
2022-12-23T07:13:11.129Z,998.19
2022-12-23T07:14:11.141Z,998.16
2022-12-23T07:15:11.068Z,998.16
2022-12-23T07:16:12.575Z,998.19
2022-12-23T07:17:11.231Z,998.13
2022-12-23T07:18:12.211Z,998.21
2022-12-23T07:19:11.086Z,998.26
2022-12-23T07:20:11.043Z,998.28
2022-12-23T07:21:21.192Z,998.34
2022-12-23T07:22:12.849Z,998.36
2022-12-23T07:23:10.983Z,998.36
2022-12-23T07:24:11.072Z,998.39
2022-12-23T07:25:11.017Z,998.43
2022-12-23T07:26:10.984Z,998.44
2022-12-23T07:27:10.911Z,998.40
2022-12-23T07:28:10.909Z,998.33
2022-12-23T07:29:11.660Z,998.28
2022-12-23T07:30:11.156Z,998.20
2022-12-23T07:31:12.042Z,998.21
2022-12-23T07:32:10.901Z,998.24
2022-12-23T07:33:10.893Z,998.32
2022-12-23T07:34:10.855Z,998.35
2022-12-23T07:35:10.954Z,998.39
2022-12-23T07:36:10.858Z,998.37
2022-12-23T07:37:10.907Z,998.36
2022-12-23T07:38:10.934Z,998.37
2022-12-23T07:39:10.781Z,998.37
2022-12-23T07:40:11.707Z,998.43
2022-12-23T07:41:10.791Z,998.43
2022-12-23T07:43:11.699Z,998.41
2022-12-23T07:44:10.684Z,998.37
2022-12-23T07:45:10.710Z,998.37
2022-12-23T07:46:10.788Z,998.35
2022-12-23T07:47:10.685Z,998.32
2022-12-23T07:48:10.753Z,998.36
2022-12-23T07:49:10.726Z,998.38
2022-12-23T07:50:10.675Z,998.39
2022-12-23T07:51:10.631Z,998.39
2022-12-23T07:52:10.643Z,998.38
2022-12-23T07:53:10.606Z,998.39
2022-12-23T07:54:10.599Z,998.42
2022-12-23T07:55:10.589Z,998.42
2022-12-23T07:56:10.567Z,998.44
2022-12-23T07:57:10.645Z,998.41
2022-12-23T07:58:10.546Z,998.46
2022-12-23T07:59:10.509Z,998.49
2022-12-23T08:00:10.548Z,998.59
2022-12-23T08:01:11.693Z,998.61
2022-12-23T08:02:10.690Z,998.61
2022-12-23T08:03:10.657Z,998.63
2022-12-23T08:04:10.479Z,998.66
2022-12-23T08:05:10.502Z,998.68
2022-12-23T08:06:10.481Z,998.69
2022-12-23T08:07:10.455Z,998.69
2022-12-23T08:08:10.427Z,998.69
2022-12-23T08:09:10.380Z,998.78
2022-12-23T08:10:11.317Z,998.84
2022-12-23T08:11:10.409Z,998.81
2022-12-23T08:12:10.371Z,998.84
2022-12-23T08:13:10.336Z,998.80
2022-12-23T08:14:10.322Z,998.87
2022-12-23T08:15:10.297Z,998.89
2022-12-23T08:16:10.382Z,998.95
2022-12-23T08:17:10.306Z,999.00
2022-12-23T08:18:10.289Z,999.05
2022-12-23T08:19:10.267Z,999.06
2022-12-23T08:20:10.251Z,999.05
2022-12-23T08:21:10.274Z,999.03
2022-12-23T08:22:10.236Z,999.07
2022-12-23T08:23:10.264Z,999.06
2022-12-23T08:24:10.210Z,999.07
2022-12-23T08:25:10.172Z,999.11
2022-12-23T08:26:10.150Z,999.09
2022-12-23T08:27:10.220Z,999.09
2022-12-23T08:28:11.121Z,999.06
2022-12-23T08:29:10.309Z,999.13
2022-12-23T08:30:10.120Z,999.09
2022-12-23T08:31:10.172Z,999.12
2022-12-23T08:32:10.084Z,999.07
2022-12-23T08:33:11.151Z,999.12
2022-12-23T08:34:10.173Z,999.14
2022-12-23T08:35:10.042Z,999.20
2022-12-23T08:36:10.274Z,999.27
2022-12-23T08:37:10.564Z,999.32
2022-12-23T08:38:10.171Z,999.30
2022-12-23T08:39:10.010Z,999.36
2022-12-23T08:40:09.962Z,999.35
2022-12-23T08:41:09.961Z,999.36
2022-12-23T08:42:09.946Z,999.38
2022-12-23T08:43:09.905Z,999.42
2022-12-23T08:44:09.962Z,999.41
2022-12-23T08:45:09.933Z,999.41
2022-12-23T08:46:09.938Z,999.45
2022-12-23T08:47:09.916Z,999.46
2022-12-23T08:48:09.872Z,999.45
2022-12-23T08:49:09.892Z,999.50
2022-12-23T08:50:09.882Z,999.52
2022-12-23T08:51:09.846Z,999.53
2022-12-23T08:52:10.863Z,999.54
2022-12-23T08:53:09.815Z,999.55
2022-12-23T08:54:09.787Z,999.55
2022-12-23T08:55:09.777Z,999.56
2022-12-23T08:56:09.779Z,999.54
2022-12-23T08:57:09.755Z,999.54
2022-12-23T08:58:09.743Z,999.53
2022-12-23T08:59:13.325Z,999.57
2022-12-23T09:00:10.766Z,999.59
2022-12-23T09:01:09.719Z,999.59
2022-12-23T09:02:10.010Z,999.61
2022-12-23T09:03:09.859Z,999.63
2022-12-23T09:04:10.739Z,999.65
2022-12-23T09:05:10.639Z,999.67
2022-12-23T09:06:09.648Z,999.64
2022-12-23T09:07:09.683Z,999.68
2022-12-23T09:08:09.682Z,999.64
2022-12-23T09:09:09.628Z,999.65
2022-12-23T09:10:09.562Z,999.69
2022-12-23T09:11:09.579Z,999.70
2022-12-23T09:12:09.594Z,999.64
2022-12-23T09:13:09.548Z,999.71
2022-12-23T09:14:09.521Z,999.73
2022-12-23T09:15:09.590Z,999.71
2022-12-23T09:16:09.551Z,999.71
2022-12-23T09:17:09.505Z,999.68
2022-12-23T09:18:09.499Z,999.70
2022-12-23T09:19:09.598Z,999.69
2022-12-23T09:20:09.480Z,999.69
2022-12-23T09:21:09.447Z,999.70
2022-12-23T09:22:09.419Z,999.72
2022-12-23T09:23:09.423Z,999.74
2022-12-23T09:24:09.398Z,999.74
2022-12-23T09:25:09.401Z,999.75
2022-12-23T09:26:09.394Z,999.77
2022-12-23T09:27:09.372Z,999.76
2022-12-23T09:28:09.411Z,999.75
2022-12-23T09:29:09.337Z,999.76
2022-12-23T09:30:10.298Z,999.74
2022-12-23T09:31:09.427Z,999.69
2022-12-23T09:32:09.296Z,999.67
2022-12-23T09:33:09.300Z,999.66
2022-12-23T09:34:09.248Z,999.63
2022-12-23T09:35:09.270Z,999.60
2022-12-23T09:36:09.270Z,999.59
2022-12-23T09:37:09.274Z,999.56
2022-12-23T09:38:09.244Z,999.50
2022-12-23T09:39:09.215Z,999.51
2022-12-23T09:40:09.206Z,999.50
2022-12-23T09:41:09.177Z,999.44
2022-12-23T09:42:09.166Z,999.48
2022-12-23T09:43:10.068Z,999.47
2022-12-23T09:44:09.157Z,999.48
2022-12-23T09:45:09.115Z,999.49
2022-12-23T09:46:10.338Z,999.47
2022-12-23T09:47:10.193Z,999.46
2022-12-23T09:48:09.290Z,999.47
2022-12-23T09:49:09.214Z,999.48
2022-12-23T09:50:10.027Z,999.52
2022-12-23T09:51:09.811Z,999.49
2022-12-23T09:52:09.127Z,999.55
2022-12-23T09:53:10.485Z,999.53
2022-12-23T09:54:14.940Z,999.52
2022-12-23T09:55:10.034Z,999.56
2022-12-23T09:56:08.996Z,999.54
2022-12-23T09:57:09.752Z,999.63
2022-12-23T09:58:09.374Z,999.62
2022-12-23T09:59:08.989Z,999.70
2022-12-23T10:00:09.604Z,999.69
2022-12-23T10:01:08.992Z,999.69
2022-12-23T10:02:09.373Z,999.68
2022-12-23T10:03:09.851Z,999.73
2022-12-23T10:04:08.909Z,999.70
2022-12-23T10:05:08.901Z,999.73
2022-12-23T10:06:08.859Z,999.77
2022-12-23T10:07:08.882Z,999.75
2022-12-23T10:08:09.270Z,999.76
2022-12-23T10:09:09.623Z,999.75
2022-12-23T10:10:09.587Z,999.72
2022-12-23T10:11:09.958Z,999.71
2022-12-23T10:12:09.247Z,999.66
2022-12-23T10:13:08.760Z,999.61
2022-12-23T10:14:08.840Z,999.62
2022-12-23T10:15:08.791Z,999.65
2022-12-23T10:16:09.142Z,999.68
2022-12-23T10:17:09.488Z,999.74
2022-12-23T10:18:08.701Z,999.78
2022-12-23T10:19:09.305Z,999.80
2022-12-23T10:20:08.701Z,999.78
2022-12-23T10:21:08.700Z,999.78
2022-12-23T10:22:08.754Z,999.74
2022-12-23T10:23:08.661Z,999.76
2022-12-23T10:24:08.613Z,999.75
2022-12-23T10:25:08.686Z,999.74
2022-12-23T10:26:08.627Z,999.80
2022-12-23T10:27:08.562Z,999.79
2022-12-23T10:28:09.333Z,999.84
2022-12-23T10:29:08.575Z,999.84
2022-12-23T10:30:33.640Z,999.84
2022-12-23T10:31:39.947Z,999.83
2022-12-23T10:32:09.709Z,999.85
2022-12-23T10:33:09.367Z,999.83
2022-12-23T10:34:08.586Z,999.81
2022-12-23T10:35:08.468Z,999.81
2022-12-23T10:36:08.497Z,999.75
2022-12-23T10:37:08.582Z,999.72
2022-12-23T10:38:08.467Z,999.68
2022-12-23T10:39:08.434Z,999.66
2022-12-23T10:40:08.447Z,999.65
2022-12-23T10:41:09.532Z,999.69
2022-12-23T10:42:08.405Z,999.75
2022-12-23T10:43:08.386Z,999.81
2022-12-23T10:44:08.371Z,999.80
2022-12-23T10:45:08.340Z,999.81
2022-12-23T10:46:08.549Z,999.84
2022-12-23T10:47:08.419Z,999.86
2022-12-23T10:48:13.686Z,999.86
2022-12-23T10:49:09.291Z,999.89
2022-12-23T10:50:08.333Z,999.87
2022-12-23T10:51:08.247Z,999.87
2022-12-23T10:52:08.256Z,999.88
2022-12-23T10:53:08.325Z,999.84
2022-12-23T10:54:08.295Z,999.82
2022-12-23T10:55:08.230Z,999.86
2022-12-23T10:56:08.272Z,999.84
2022-12-23T10:57:08.180Z,999.81
2022-12-23T10:58:08.165Z,999.82
2022-12-23T10:59:09.000Z,999.83
2022-12-23T11:00:08.159Z,999.81
2022-12-23T11:01:14.988Z,999.84
2022-12-23T11:02:09.287Z,999.82
2022-12-23T11:03:08.249Z,999.81
2022-12-23T11:04:08.091Z,999.84
2022-12-23T11:05:08.095Z,999.83
2022-12-23T11:06:08.109Z,999.81
2022-12-23T11:07:42.319Z,999.80
2022-12-23T11:08:09.058Z,999.81
2022-12-23T11:09:08.032Z,999.80
2022-12-23T11:10:08.020Z,999.81
2022-12-23T11:11:08.060Z,999.78
2022-12-23T11:12:08.073Z,999.84
2022-12-23T11:13:07.994Z,999.84
2022-12-23T11:14:07.965Z,999.82
2022-12-23T11:15:07.937Z,999.77
2022-12-23T11:16:07.960Z,999.77
2022-12-23T11:17:07.933Z,999.77
2022-12-23T11:18:07.933Z,999.72
2022-12-23T11:19:07.929Z,999.70
2022-12-23T11:20:07.904Z,999.67
2022-12-23T11:21:07.905Z,999.65
2022-12-23T11:22:07.848Z,999.67
2022-12-23T11:23:07.849Z,999.69
2022-12-23T11:24:07.950Z,999.65
2022-12-23T11:25:08.122Z,999.65
2022-12-23T11:26:07.807Z,999.61
2022-12-23T11:27:07.787Z,999.63
2022-12-23T11:28:07.836Z,999.60
2022-12-23T11:29:07.778Z,999.60
2022-12-23T11:30:07.885Z,999.55
2022-12-23T11:31:07.755Z,999.47
2022-12-23T11:32:07.738Z,999.48
2022-12-23T11:33:07.728Z,999.49
2022-12-23T11:34:07.687Z,999.50
2022-12-23T11:35:07.705Z,999.55
2022-12-23T11:36:07.719Z,999.49
2022-12-23T11:37:08.846Z,999.43
2022-12-23T11:38:07.701Z,999.39
2022-12-23T11:39:07.689Z,999.43
2022-12-23T11:40:07.604Z,999.46
2022-12-23T11:41:07.629Z,999.45
2022-12-23T11:42:07.605Z,999.46
2022-12-23T11:43:07.612Z,999.51
2022-12-23T11:44:07.613Z,999.47
2022-12-23T11:45:07.567Z,999.49
2022-12-23T11:46:07.595Z,999.51
2022-12-23T11:47:07.589Z,999.47
2022-12-23T11:48:07.543Z,999.43
2022-12-23T11:49:07.509Z,999.37
2022-12-23T11:50:08.529Z,999.31
2022-12-23T11:51:08.523Z,999.28
2022-12-23T11:52:07.470Z,999.29
2022-12-23T11:53:07.479Z,999.25
2022-12-23T11:54:07.428Z,999.19
2022-12-23T11:55:07.472Z,999.22
2022-12-23T11:56:07.758Z,999.22
2022-12-23T11:57:07.499Z,999.25
2022-12-23T11:58:07.387Z,999.21
2022-12-23T11:59:07.405Z,999.21
2022-12-23T12:00:07.401Z,999.27
2022-12-23T12:01:07.340Z,999.23
2022-12-23T12:02:07.446Z,999.26
2022-12-23T12:03:07.549Z,999.25
2022-12-23T12:04:07.305Z,999.26
2022-12-23T12:05:07.353Z,999.27
2022-12-23T12:06:07.297Z,999.29
2022-12-23T12:07:07.261Z,999.28
2022-12-23T12:08:07.255Z,999.25
2022-12-23T12:09:07.305Z,999.26
2022-12-23T12:10:07.269Z,999.23
2022-12-23T12:11:07.215Z,999.25
2022-12-23T12:12:07.298Z,999.30
2022-12-23T12:13:07.201Z,999.26
2022-12-23T12:14:07.211Z,999.29
2022-12-23T12:15:07.179Z,999.29
2022-12-23T12:16:08.186Z,999.27
2022-12-23T12:17:07.662Z,999.33
2022-12-23T12:18:07.136Z,999.28
2022-12-23T12:19:07.123Z,999.35
2022-12-23T12:20:07.096Z,999.35
2022-12-23T12:21:07.123Z,999.36
2022-12-23T12:22:07.104Z,999.34
2022-12-23T12:23:07.046Z,999.34
2022-12-23T12:24:18.322Z,999.36
2022-12-23T12:25:08.028Z,999.36
2022-12-23T12:26:07.118Z,999.35
2022-12-23T12:27:07.024Z,999.36
2022-12-23T12:28:07.020Z,999.31
2022-12-23T12:29:07.227Z,999.31